ADDS METAR Data INFO
IDs: Format: Raw Decoded Include TAF

Data at: 2307 UTC 16 Jan 2018

KGRI 162253Z 25004KT 10SM CLR M11/M16 A3063 RMK AO2 SLP424 T11111161
KGRI 162153Z 26003KT 10SM CLR M11/M16 A3065 RMK AO2 SLP431 T11111161
KGRI 162053Z 31006KT 10SM CLR M12/M16 A3066 RMK AO2 SLP436 T11171161 56021
KGRI 161953Z 29005KT 10SM CLR M13/M17 A3067 RMK AO2 SLP440 T11281167
KGRI 161853Z 34006KT 10SM CLR M14/M18 A3070 RMK AO2 SLP450 T11391178
KGRI 161753Z 34007KT 10SM CLR M15/M19 A3073 RMK AO2 SLP461 T11501189 11150 21189 50000
KGRI 161653Z 33011KT 10SM CLR M16/M19 A3075 RMK AO2 SLP467 T11561189
KGRI 161611Z 31011KT 10SM SCT012 M16/M19 A3074 RMK AO2 T11611189
KGRI 161553Z 32009KT 9SM BKN012 M17/M19 A3073 RMK AO2 SLP460 T11671189
KGRI 161453Z 34009KT 4SM BR OVC013 M17/M19 A3073 RMK AO2 SLP461 T11721189 53004
KGRI 161353Z 33011KT 10SM OVC013 M18/M20 A3072 RMK AO2 SLP460 T11781200
KGRI 161253Z 33012KT 10SM OVC013 M18/M21 A3072 RMK AO2 SLP458 T11781206
KGRI 161213Z AUTO 32008KT 10SM OVC014 M18/M21 A3072 RMK AO2 T11831211
KGRI 161153Z AUTO 31009KT 10SM OVC016 M19/M22 A3072 RMK AO2 SLP459 T11891222 11183 21194 53007
KGRI 161137Z AUTO 30006KT 10SM BKN016 M19/M22 A3071 RMK AO2 T11941222
KGRI 161053Z AUTO 31008KT 10SM CLR M19/M23 A3070 RMK AO2 SLP452 T11941228
KGRI 160953Z AUTO 32013KT 10SM SCT017 M19/M22 A3069 RMK AO2 SLP448 T11891222
KGRI 160853Z AUTO 32012KT 10SM BKN020 M19/M22 A3069 RMK AO2 SLP448 T11891222 55001
KGRI 160803Z AUTO 33016KT 10SM BKN020 M19/M23 A3069 RMK AO2 T11891228
KGRI 160753Z AUTO 33014KT 10SM SCT022 M19/M23 A3069 RMK AO2 SLP448 T11891228
KGRI 160653Z AUTO 33014KT 10SM CLR M19/M22 A3069 RMK AO2 SLP447 T11891222
KGRI 160553Z AUTO 33017G22KT 10SM CLR M18/M23 A3070 RMK AO2 SLP449 60000 T11831228 11161 21183 410441183 51010
KGRI 160453Z AUTO 34018KT 10SM CLR M18/M22 A3069 RMK AO2 PK WND 33029/0359 SLP447 T11781222
KGRI 160353Z AUTO 34023G32KT 10SM FEW030 M17/M22 A3068 RMK AO2 PK WND 34032/0352 SLP445 T11721222
KGRI 160313Z AUTO 34018G25KT 10SM BKN030 M17/M21 A3068 RMK AO2 PK WND 33027/0300 T11671211
KGRI 160253Z AUTO 33018KT 10SM FEW023 OVC029 M17/M21 A3066 RMK AO2 PK WND 32028/0206 UPB08E11 SLP438 P0000 60000 T11671206 51012
KGRI 160246Z AUTO 34016KT 10SM FEW023 OVC029 M17/M21 A3067 RMK AO2 PK WND 32028/0206 UPB08E11 P0000 T11671206
KGRI 160153Z 33018G25KT 9SM OVC032 M17/M21 A3066 RMK AO2 PK WND 33028/0141 SLP436 T11671206
KGRI 160053Z 34018KT 10SM CLR M17/M21 A3064 RMK AO2 PK WND 33031/0035 SLP431 T11671211
KGRI 152353Z 34014KT 10SM CLR M17/M21 A3063 RMK AO2 PK WND 33029/2254 SLP424 T11671211 11139 21167 51012
KGRI 152253Z 33022G30KT 10SM FEW027 SCT032 M16/M21 A3062 RMK AO2 PK WND 32030/2213 SLP419 T11561211
KGRI 152153Z 33019G27KT 10SM CLR M14/M20 A3060 RMK AO2 PK WND 32028/2108 SLP410 T11441200
KGRI 152053Z 33019G25KT 10SM FEW028 M14/M19 A3059 RMK AO2 PK WND 32029/2004 SLP406 T11391189 55006
KGRI 151953Z 32020G28KT 10SM FEW025 M14/M19 A3058 RMK AO2 PK WND 34031/1913 SLP403 T11441194
KGRI 151853Z 33024G31KT 10SM BKN025 M14/M19 A3059 RMK AO2 PK WND 33031/1824 SLP401 T11441194
KGRI 151800Z 34022G27KT 10SM OVC027 M15/M20 A3061 RMK AO2 PK WND 33027/1758 T11501200
KGRI 151753Z 33019KT 10SM SCT021 SCT027 M14/M19 A3061 RMK AO2 PK WND 34028/1743 SLP407 T11441194 11144 21172 50014
KGRI 151653Z 33016G26KT 10SM FEW025 M16/M20 A3061 RMK AO2 PK WND 34026/1650 SLP404 T11561200
KGRI 151553Z 33019G25KT 10SM SCT023 M17/M21 A3060 RMK AO2 SLP400 T11671206
KGRI 151453Z 33016KT 10SM CLR M17/M21 A3057 RMK AO2 SLP388 T11671206 51031
KGRI 151353Z 33015KT 10SM CLR M17/M21 A3054 RMK AO2 PK WND 33029/1302 SLP380 T11721206
KGRI 151253Z 33017KT 10SM FEW023 M17/M20 A3051 RMK AO2 SLP369 T11671200
KGRI 151153Z AUTO 33019G26KT 10SM CLR M16/M19 A3047 RMK AO2 PK WND 34030/1109 SLP352 60000 T11561194 11044 21156 53022